sensor_id;sensor_type;location;lat;lon;timestamp;P1;durP1;ratioP1;P2;durP2;ratioP2
18732;SDS011;9495;51.210;2.934;2023-03-14T00:02:08;9.35;;;2.17;;
18732;SDS011;9495;51.210;2.934;2023-03-14T00:04:37;11.20;;;3.13;;
18732;SDS011;9495;51.210;2.934;2023-03-14T00:07:05;10.70;;;2.25;;
18732;SDS011;9495;51.210;2.934;2023-03-14T00:09:34;9.63;;;2.17;;
18732;SDS011;9495;51.210;2.934;2023-03-14T00:12:04;10.55;;;1.92;;
18732;SDS011;9495;51.210;2.934;2023-03-14T00:14:33;9.85;;;2.00;;
18732;SDS011;9495;51.210;2.934;2023-03-14T00:17:02;11.52;;;2.50;;
18732;SDS011;9495;51.210;2.934;2023-03-14T00:19:30;9.47;;;2.30;;
18732;SDS011;9495;51.210;2.934;2023-03-14T00:21:59;8.65;;;1.67;;
18732;SDS011;9495;51.210;2.934;2023-03-14T00:24:27;9.35;;;1.85;;
18732;SDS011;9495;51.210;2.934;2023-03-14T00:26:56;11.40;;;2.80;;
18732;SDS011;9495;51.210;2.934;2023-03-14T00:29:25;10.17;;;2.50;;
18732;SDS011;9495;51.210;2.934;2023-03-14T00:31:54;7.20;;;1.80;;
18732;SDS011;9495;51.210;2.934;2023-03-14T00:34:22;11.07;;;2.35;;
18732;SDS011;9495;51.210;2.934;2023-03-14T00:36:51;8.70;;;2.30;;
18732;SDS011;9495;51.210;2.934;2023-03-14T00:39:20;12.32;;;2.10;;
18732;SDS011;9495;51.210;2.934;2023-03-14T00:41:48;10.27;;;2.10;;
18732;SDS011;9495;51.210;2.934;2023-03-14T00:44:17;8.63;;;2.17;;
18732;SDS011;9495;51.210;2.934;2023-03-14T00:46:46;10.70;;;2.63;;
18732;SDS011;9495;51.210;2.934;2023-03-14T00:49:15;9.07;;;2.10;;
18732;SDS011;9495;51.210;2.934;2023-03-14T00:51:43;7.38;;;1.85;;
18732;SDS011;9495;51.210;2.934;2023-03-14T00:54:12;8.43;;;2.00;;
18732;SDS011;9495;51.210;2.934;2023-03-14T00:56:40;12.45;;;2.38;;
18732;SDS011;9495;51.210;2.934;2023-03-14T00:59:09;8.32;;;2.10;;
18732;SDS011;9495;51.210;2.934;2023-03-14T01:01:38;6.22;;;2.10;;
18732;SDS011;9495;51.210;2.934;2023-03-14T01:04:08;10.88;;;2.30;;
18732;SDS011;9495;51.210;2.934;2023-03-14T01:06:36;8.77;;;1.90;;
18732;SDS011;9495;51.210;2.934;2023-03-14T01:09:05;9.43;;;2.38;;
18732;SDS011;9495;51.210;2.934;2023-03-14T01:11:34;9.70;;;2.50;;
18732;SDS011;9495;51.210;2.934;2023-03-14T01:14:03;8.88;;;2.45;;
18732;SDS011;9495;51.210;2.934;2023-03-14T01:16:32;9.85;;;2.67;;
18732;SDS011;9495;51.210;2.934;2023-03-14T01:19:02;8.15;;;2.50;;
18732;SDS011;9495;51.210;2.934;2023-03-14T01:21:32;12.05;;;3.00;;
18732;SDS011;9495;51.210;2.934;2023-03-14T01:24:02;8.75;;;2.28;;
18732;SDS011;9495;51.210;2.934;2023-03-14T01:26:32;12.30;;;2.87;;
18732;SDS011;9495;51.210;2.934;2023-03-14T01:29:02;15.52;;;3.30;;
18732;SDS011;9495;51.210;2.934;2023-03-14T01:31:31;11.32;;;2.53;;
18732;SDS011;9495;51.210;2.934;2023-03-14T01:33:59;16.13;;;2.97;;
18732;SDS011;9495;51.210;2.934;2023-03-14T01:36:27;12.53;;;2.70;;
18732;SDS011;9495;51.210;2.934;2023-03-14T01:38:58;14.30;;;2.63;;
18732;SDS011;9495;51.210;2.934;2023-03-14T01:41:27;12.60;;;2.70;;
18732;SDS011;9495;51.210;2.934;2023-03-14T01:43:55;12.43;;;2.67;;
18732;SDS011;9495;51.210;2.934;2023-03-14T01:46:37;11.70;;;2.42;;
18732;SDS011;9495;51.210;2.934;2023-03-14T01:49:11;8.07;;;2.67;;
18732;SDS011;9495;51.210;2.934;2023-03-14T01:51:45;17.55;;;3.67;;
18732;SDS011;9495;51.210;2.934;2023-03-14T01:54:19;13.60;;;2.77;;
18732;SDS011;9495;51.210;2.934;2023-03-14T01:56:53;13.60;;;3.60;;
18732;SDS011;9495;51.210;2.934;2023-03-14T01:59:25;10.93;;;2.63;;
18732;SDS011;9495;51.210;2.934;2023-03-14T02:01:56;9.90;;;2.83;;
18732;SDS011;9495;51.210;2.934;2023-03-14T02:04:25;15.90;;;2.90;;
18732;SDS011;9495;51.210;2.934;2023-03-14T02:07:01;10.60;;;3.23;;
18732;SDS011;9495;51.210;2.934;2023-03-14T02:09:35;10.37;;;2.53;;
18732;SDS011;9495;51.210;2.934;2023-03-14T02:12:05;11.40;;;3.00;;
18732;SDS011;9495;51.210;2.934;2023-03-14T02:14:36;13.57;;;2.60;;
18732;SDS011;9495;51.210;2.934;2023-03-14T02:17:05;16.73;;;3.77;;
18732;SDS011;9495;51.210;2.934;2023-03-14T02:19:38;10.23;;;2.57;;
18732;SDS011;9495;51.210;2.934;2023-03-14T02:22:20;10.83;;;2.70;;
18732;SDS011;9495;51.210;2.934;2023-03-14T02:24:51;11.63;;;2.97;;
18732;SDS011;9495;51.210;2.934;2023-03-14T02:27:28;10.73;;;2.57;;
18732;SDS011;9495;51.210;2.934;2023-03-14T02:29:57;13.60;;;2.57;;
18732;SDS011;9495;51.210;2.934;2023-03-14T02:32:29;8.80;;;2.67;;
18732;SDS011;9495;51.210;2.934;2023-03-14T02:35:00;7.93;;;2.43;;
18732;SDS011;9495;51.210;2.934;2023-03-14T02:37:32;12.37;;;2.10;;
18732;SDS011;9495;51.210;2.934;2023-03-14T02:40:04;7.45;;;1.85;;
18732;SDS011;9495;51.210;2.934;2023-03-14T02:42:35;9.10;;;2.42;;
18732;SDS011;9495;51.210;2.934;2023-03-14T02:48:05;7.43;;;2.10;;
18732;SDS011;9495;51.210;2.934;2023-03-14T02:50:35;9.73;;;2.08;;
18732;SDS011;9495;51.210;2.934;2023-03-14T02:53:04;6.60;;;1.90;;
18732;SDS011;9495;51.210;2.934;2023-03-14T02:55:32;6.32;;;1.75;;
18732;SDS011;9495;51.210;2.934;2023-03-14T02:58:02;7.85;;;2.50;;
18732;SDS011;9495;51.210;2.934;2023-03-14T03:00:30;10.27;;;2.50;;
18732;SDS011;9495;51.210;2.934;2023-03-14T03:02:59;9.77;;;1.67;;
18732;SDS011;9495;51.210;2.934;2023-03-14T03:05:28;9.57;;;1.57;;
18732;SDS011;9495;51.210;2.934;2023-03-14T03:07:57;4.63;;;1.50;;
18732;SDS011;9495;51.210;2.934;2023-03-14T03:10:26;7.80;;;1.80;;
18732;SDS011;9495;51.210;2.934;2023-03-14T03:12:55;4.53;;;1.50;;
18732;SDS011;9495;51.210;2.934;2023-03-14T03:15:24;4.87;;;1.47;;
18732;SDS011;9495;51.210;2.934;2023-03-14T03:17:53;5.13;;;1.30;;
18732;SDS011;9495;51.210;2.934;2023-03-14T03:20:22;2.70;;;1.00;;
18732;SDS011;9495;51.210;2.934;2023-03-14T03:22:50;4.13;;;1.30;;
18732;SDS011;9495;51.210;2.934;2023-03-14T03:25:19;2.53;;;1.07;;
18732;SDS011;9495;51.210;2.934;2023-03-14T03:27:47;3.17;;;1.00;;
18732;SDS011;9495;51.210;2.934;2023-03-14T03:30:16;4.78;;;1.08;;
18732;SDS011;9495;51.210;2.934;2023-03-14T03:32:45;2.63;;;0.90;;
18732;SDS011;9495;51.210;2.934;2023-03-14T03:35:14;4.45;;;1.30;;
18732;SDS011;9495;51.210;2.934;2023-03-14T03:37:43;6.30;;;1.58;;
18732;SDS011;9495;51.210;2.934;2023-03-14T03:40:11;3.88;;;1.77;;
18732;SDS011;9495;51.210;2.934;2023-03-14T03:42:40;2.37;;;1.30;;
18732;SDS011;9495;51.210;2.934;2023-03-14T03:45:09;3.20;;;1.13;;
18732;SDS011;9495;51.210;2.934;2023-03-14T03:47:37;3.57;;;1.27;;
18732;SDS011;9495;51.210;2.934;2023-03-14T03:50:08;6.37;;;1.47;;
18732;SDS011;9495;51.210;2.934;2023-03-14T03:52:37;6.87;;;1.30;;
18732;SDS011;9495;51.210;2.934;2023-03-14T03:55:06;3.97;;;1.27;;
18732;SDS011;9495;51.210;2.934;2023-03-14T03:57:34;3.53;;;1.30;;
18732;SDS011;9495;51.210;2.934;2023-03-14T04:00:03;4.53;;;1.20;;
18732;SDS011;9495;51.210;2.934;2023-03-14T04:02:33;6.37;;;1.27;;
18732;SDS011;9495;51.210;2.934;2023-03-14T04:05:02;6.17;;;1.20;;
18732;SDS011;9495;51.210;2.934;2023-03-14T04:07:32;6.45;;;1.52;;
18732;SDS011;9495;51.210;2.934;2023-03-14T04:10:01;4.83;;;1.27;;
18732;SDS011;9495;51.210;2.934;2023-03-14T04:12:29;3.97;;;1.30;;
18732;SDS011;9495;51.210;2.934;2023-03-14T04:14:58;3.67;;;1.10;;
18732;SDS011;9495;51.210;2.934;2023-03-14T04:17:26;4.37;;;1.40;;
18732;SDS011;9495;51.210;2.934;2023-03-14T04:19:55;4.60;;;1.60;;
18732;SDS011;9495;51.210;2.934;2023-03-14T04:22:23;4.57;;;1.90;;
18732;SDS011;9495;51.210;2.934;2023-03-14T04:24:53;4.67;;;1.30;;
18732;SDS011;9495;51.210;2.934;2023-03-14T04:27:21;5.83;;;1.67;;
18732;SDS011;9495;51.210;2.934;2023-03-14T04:29:50;4.23;;;1.80;;
18732;SDS011;9495;51.210;2.934;2023-03-14T04:32:19;9.10;;;2.43;;
18732;SDS011;9495;51.210;2.934;2023-03-14T04:34:47;0.00;;;0.00;;
18732;SDS011;9495;51.210;2.934;2023-03-14T04:37:16;0.20;;;0.20;;
18732;SDS011;9495;51.210;2.934;2023-03-14T04:39:44;0.00;;;0.00;;
18732;SDS011;9495;51.210;2.934;2023-03-14T04:42:14;0.10;;;0.10;;
18732;SDS011;9495;51.210;2.934;2023-03-14T04:44:42;0.00;;;0.00;;
18732;SDS011;9495;51.210;2.934;2023-03-14T04:47:11;0.00;;;0.00;;
18732;SDS011;9495;51.210;2.934;2023-03-14T04:49:39;0.00;;;0.00;;
18732;SDS011;9495;51.210;2.934;2023-03-14T04:52:07;0.00;;;0.00;;
18732;SDS011;9495;51.210;2.934;2023-03-14T04:54:36;0.00;;;0.00;;
18732;SDS011;9495;51.210;2.934;2023-03-14T04:57:04;0.10;;;0.10;;
18732;SDS011;9495;51.210;2.934;2023-03-14T04:59:34;0.00;;;0.00;;
18732;SDS011;9495;51.210;2.934;2023-03-14T05:02:02;0.10;;;0.10;;
18732;SDS011;9495;51.210;2.934;2023-03-14T05:04:31;0.00;;;0.00;;
18732;SDS011;9495;51.210;2.934;2023-03-14T05:07:00;0.20;;;0.20;;
18732;SDS011;9495;51.210;2.934;2023-03-14T05:09:28;0.47;;;0.47;;
18732;SDS011;9495;51.210;2.934;2023-03-14T05:11:57;0.00;;;0.00;;
18732;SDS011;9495;51.210;2.934;2023-03-14T05:14:25;0.50;;;0.40;;
18732;SDS011;9495;51.210;2.934;2023-03-14T05:16:55;0.00;;;0.00;;
18732;SDS011;9495;51.210;2.934;2023-03-14T05:19:24;0.00;;;0.00;;
18732;SDS011;9495;51.210;2.934;2023-03-14T05:21:52;0.30;;;0.30;;
18732;SDS011;9495;51.210;2.934;2023-03-14T05:24:21;0.50;;;0.47;;
18732;SDS011;9495;51.210;2.934;2023-03-14T05:26:49;0.10;;;0.10;;
18732;SDS011;9495;51.210;2.934;2023-03-14T05:29:17;0.00;;;0.00;;
18732;SDS011;9495;51.210;2.934;2023-03-14T05:31:46;0.00;;;0.00;;
18732;SDS011;9495;51.210;2.934;2023-03-14T05:34:16;0.00;;;0.00;;
18732;SDS011;9495;51.210;2.934;2023-03-14T05:36:44;0.00;;;0.00;;
18732;SDS011;9495;51.210;2.934;2023-03-14T05:39:12;0.10;;;0.10;;
18732;SDS011;9495;51.210;2.934;2023-03-14T05:41:41;0.00;;;0.00;;
18732;SDS011;9495;51.210;2.934;2023-03-14T05:44:09;0.00;;;0.00;;
18732;SDS011;9495;51.210;2.934;2023-03-14T05:46:38;0.30;;;0.30;;
18732;SDS011;9495;51.210;2.934;2023-03-14T05:49:06;0.00;;;0.00;;
18732;SDS011;9495;51.210;2.934;2023-03-14T05:51:36;0.40;;;0.37;;
18732;SDS011;9495;51.210;2.934;2023-03-14T05:54:05;0.60;;;0.60;;
18732;SDS011;9495;51.210;2.934;2023-03-14T05:56:33;12.13;;;2.90;;
18732;SDS011;9495;51.210;2.934;2023-03-14T05:59:02;11.73;;;3.10;;
18732;SDS011;9495;51.210;2.934;2023-03-14T06:01:31;13.27;;;2.93;;
18732;SDS011;9495;51.210;2.934;2023-03-14T06:03:59;11.90;;;3.03;;
18732;SDS011;9495;51.210;2.934;2023-03-14T06:06:28;13.37;;;2.40;;
18732;SDS011;9495;51.210;2.934;2023-03-14T06:08:58;10.07;;;2.27;;
18732;SDS011;9495;51.210;2.934;2023-03-14T06:11:26;10.27;;;2.47;;
18732;SDS011;9495;51.210;2.934;2023-03-14T06:13:54;18.17;;;3.17;;
18732;SDS011;9495;51.210;2.934;2023-03-14T06:16:23;14.90;;;2.97;;
18732;SDS011;9495;51.210;2.934;2023-03-14T06:18:51;10.03;;;2.30;;
18732;SDS011;9495;51.210;2.934;2023-03-14T06:21:20;13.07;;;3.10;;
18732;SDS011;9495;51.210;2.934;2023-03-14T06:23:49;11.07;;;2.93;;
18732;SDS011;9495;51.210;2.934;2023-03-14T06:26:19;12.77;;;3.13;;
18732;SDS011;9495;51.210;2.934;2023-03-14T06:28:48;9.80;;;2.67;;
18732;SDS011;9495;51.210;2.934;2023-03-14T06:31:17;11.57;;;2.73;;
18732;SDS011;9495;51.210;2.934;2023-03-14T06:33:46;8.77;;;2.57;;
18732;SDS011;9495;51.210;2.934;2023-03-14T06:36:14;8.93;;;2.80;;
18732;SDS011;9495;51.210;2.934;2023-03-14T06:38:43;10.20;;;2.60;;
18732;SDS011;9495;51.210;2.934;2023-03-14T06:41:11;10.53;;;2.30;;
18732;SDS011;9495;51.210;2.934;2023-03-14T06:43:41;6.53;;;2.10;;
18732;SDS011;9495;51.210;2.934;2023-03-14T06:46:10;7.00;;;2.40;;
18732;SDS011;9495;51.210;2.934;2023-03-14T06:48:38;4.57;;;2.10;;
18732;SDS011;9495;51.210;2.934;2023-03-14T06:51:07;8.53;;;2.60;;
18732;SDS011;9495;51.210;2.934;2023-03-14T06:53:35;6.33;;;2.43;;
18732;SDS011;9495;51.210;2.934;2023-03-14T06:56:04;10.47;;;3.17;;
18732;SDS011;9495;51.210;2.934;2023-03-14T06:58:33;9.03;;;3.00;;
18732;SDS011;9495;51.210;2.934;2023-03-14T07:01:03;7.60;;;3.00;;
18732;SDS011;9495;51.210;2.934;2023-03-14T07:03:32;6.77;;;2.60;;
18732;SDS011;9495;51.210;2.934;2023-03-14T07:06:01;10.97;;;2.73;;
18732;SDS011;9495;51.210;2.934;2023-03-14T07:08:29;11.07;;;2.87;;
18732;SDS011;9495;51.210;2.934;2023-03-14T07:10:58;9.23;;;2.90;;
18732;SDS011;9495;51.210;2.934;2023-03-14T07:13:27;7.93;;;2.63;;
18732;SDS011;9495;51.210;2.934;2023-03-14T07:15:55;7.63;;;2.53;;
18732;SDS011;9495;51.210;2.934;2023-03-14T07:18:25;11.07;;;3.63;;
18732;SDS011;9495;51.210;2.934;2023-03-14T07:20:54;6.83;;;2.50;;
18732;SDS011;9495;51.210;2.934;2023-03-14T07:23:22;7.43;;;2.70;;
18732;SDS011;9495;51.210;2.934;2023-03-14T07:25:51;4.30;;;2.13;;
18732;SDS011;9495;51.210;2.934;2023-03-14T07:28:20;9.30;;;2.37;;
18732;SDS011;9495;51.210;2.934;2023-03-14T07:30:49;11.43;;;2.50;;
18732;SDS011;9495;51.210;2.934;2023-03-14T07:33:18;11.57;;;3.07;;
18732;SDS011;9495;51.210;2.934;2023-03-14T07:35:48;12.60;;;2.70;;
18732;SDS011;9495;51.210;2.934;2023-03-14T07:38:17;13.63;;;2.57;;
18732;SDS011;9495;51.210;2.934;2023-03-14T07:40:48;16.00;;;3.47;;
18732;SDS011;9495;51.210;2.934;2023-03-14T07:43:17;8.00;;;2.13;;
18732;SDS011;9495;51.210;2.934;2023-03-14T07:45:45;17.07;;;3.47;;
18732;SDS011;9495;51.210;2.934;2023-03-14T07:48:16;14.47;;;3.07;;
18732;SDS011;9495;51.210;2.934;2023-03-14T07:50:49;15.37;;;3.27;;
18732;SDS011;9495;51.210;2.934;2023-03-14T07:53:17;12.40;;;3.87;;
18732;SDS011;9495;51.210;2.934;2023-03-14T07:55:46;17.70;;;4.10;;
18732;SDS011;9495;51.210;2.934;2023-03-14T07:58:15;15.57;;;4.23;;
18732;SDS011;9495;51.210;2.934;2023-03-14T08:00:43;16.90;;;3.80;;
18732;SDS011;9495;51.210;2.934;2023-03-14T08:03:12;18.03;;;3.70;;
18732;SDS011;9495;51.210;2.934;2023-03-14T08:05:40;19.27;;;4.50;;
18732;SDS011;9495;51.210;2.934;2023-03-14T08:08:10;25.90;;;4.00;;
18732;SDS011;9495;51.210;2.934;2023-03-14T08:10:38;13.33;;;3.60;;
18732;SDS011;9495;51.210;2.934;2023-03-14T08:13:08;14.93;;;3.47;;
18732;SDS011;9495;51.210;2.934;2023-03-14T08:15:37;13.97;;;3.70;;
18732;SDS011;9495;51.210;2.934;2023-03-14T08:18:05;22.47;;;3.63;;
18732;SDS011;9495;51.210;2.934;2023-03-14T08:20:35;16.00;;;3.27;;
18732;SDS011;9495;51.210;2.934;2023-03-14T08:23:04;15.93;;;3.50;;
18732;SDS011;9495;51.210;2.934;2023-03-14T08:25:33;18.83;;;3.57;;
18732;SDS011;9495;51.210;2.934;2023-03-14T08:28:02;13.73;;;3.30;;
18732;SDS011;9495;51.210;2.934;2023-03-14T08:30:31;15.33;;;2.67;;
18732;SDS011;9495;51.210;2.934;2023-03-14T08:33:00;13.57;;;2.63;;
18732;SDS011;9495;51.210;2.934;2023-03-14T08:35:28;12.80;;;2.50;;
18732;SDS011;9495;51.210;2.934;2023-03-14T08:37:57;12.43;;;3.07;;
18732;SDS011;9495;51.210;2.934;2023-03-14T08:40:25;14.70;;;3.00;;
18732;SDS011;9495;51.210;2.934;2023-03-14T08:42:55;14.83;;;3.57;;
18732;SDS011;9495;51.210;2.934;2023-03-14T08:45:24;13.33;;;2.63;;
18732;SDS011;9495;51.210;2.934;2023-03-14T08:47:53;17.47;;;3.23;;
18732;SDS011;9495;51.210;2.934;2023-03-14T08:50:21;18.20;;;3.03;;
18732;SDS011;9495;51.210;2.934;2023-03-14T08:52:50;8.27;;;2.43;;
18732;SDS011;9495;51.210;2.934;2023-03-14T08:55:19;13.27;;;2.57;;
18732;SDS011;9495;51.210;2.934;2023-03-14T08:57:48;16.87;;;3.00;;
18732;SDS011;9495;51.210;2.934;2023-03-14T09:00:18;17.63;;;3.33;;
18732;SDS011;9495;51.210;2.934;2023-03-14T09:02:47;18.17;;;2.60;;
18732;SDS011;9495;51.210;2.934;2023-03-14T09:05:15;11.83;;;2.33;;
18732;SDS011;9495;51.210;2.934;2023-03-14T09:07:44;11.23;;;2.10;;
18732;SDS011;9495;51.210;2.934;2023-03-14T09:10:13;16.40;;;3.17;;
18732;SDS011;9495;51.210;2.934;2023-03-14T09:12:42;11.17;;;1.93;;
18732;SDS011;9495;51.210;2.934;2023-03-14T09:15:10;0.50;;;0.50;;
18732;SDS011;9495;51.210;2.934;2023-03-14T09:17:40;0.20;;;0.20;;
18732;SDS011;9495;51.210;2.934;2023-03-14T09:20:10;0.20;;;0.20;;
18732;SDS011;9495;51.210;2.934;2023-03-14T09:22:40;0.10;;;0.10;;
18732;SDS011;9495;51.210;2.934;2023-03-14T09:25:09;0.60;;;0.20;;
18732;SDS011;9495;51.210;2.934;2023-03-14T09:27:38;0.40;;;0.40;;
18732;SDS011;9495;51.210;2.934;2023-03-14T09:30:07;0.10;;;0.10;;
18732;SDS011;9495;51.210;2.934;2023-03-14T09:32:37;0.00;;;0.00;;
18732;SDS011;9495;51.210;2.934;2023-03-14T09:35:07;0.10;;;0.10;;
18732;SDS011;9495;51.210;2.934;2023-03-14T09:37:36;0.10;;;0.10;;
18732;SDS011;9495;51.210;2.934;2023-03-14T09:59:54;0.00;;;0.00;;
18732;SDS011;9495;51.210;2.934;2023-03-14T10:02:28;0.00;;;0.00;;
18732;SDS011;9495;51.210;2.934;2023-03-14T10:05:00;0.10;;;0.10;;
18732;SDS011;9495;51.210;2.934;2023-03-14T10:07:33;0.00;;;0.00;;
18732;SDS011;9495;51.210;2.934;2023-03-14T10:10:08;1.80;;;0.67;;
18732;SDS011;9495;51.210;2.934;2023-03-14T10:12:39;0.00;;;0.00;;
18732;SDS011;9495;51.210;2.934;2023-03-14T10:15:10;0.00;;;0.00;;
18732;SDS011;9495;51.210;2.934;2023-03-14T10:17:41;0.10;;;0.10;;
18732;SDS011;9495;51.210;2.934;2023-03-14T10:20:25;0.00;;;0.00;;
18732;SDS011;9495;51.210;2.934;2023-03-14T10:22:59;0.00;;;0.00;;
18732;SDS011;9495;51.210;2.934;2023-03-14T10:25:30;0.00;;;0.00;;
18732;SDS011;9495;51.210;2.934;2023-03-14T10:27:59;0.20;;;0.20;;
18732;SDS011;9495;51.210;2.934;2023-03-14T10:30:38;0.60;;;0.33;;
18732;SDS011;9495;51.210;2.934;2023-03-14T10:33:11;0.10;;;0.10;;
18732;SDS011;9495;51.210;2.934;2023-03-14T10:35:52;0.00;;;0.00;;
18732;SDS011;9495;51.210;2.934;2023-03-14T10:38:22;0.00;;;0.00;;
18732;SDS011;9495;51.210;2.934;2023-03-14T10:40:52;0.10;;;0.10;;
18732;SDS011;9495;51.210;2.934;2023-03-14T10:43:22;0.03;;;0.03;;
18732;SDS011;9495;51.210;2.934;2023-03-14T10:45:55;0.10;;;0.10;;
18732;SDS011;9495;51.210;2.934;2023-03-14T10:48:30;0.00;;;0.00;;
18732;SDS011;9495;51.210;2.934;2023-03-14T10:51:03;0.00;;;0.00;;
18732;SDS011;9495;51.210;2.934;2023-03-14T10:53:34;0.10;;;0.10;;
18732;SDS011;9495;51.210;2.934;2023-03-14T10:56:11;0.00;;;0.00;;
18732;SDS011;9495;51.210;2.934;2023-03-14T10:58:40;0.10;;;0.10;;
18732;SDS011;9495;51.210;2.934;2023-03-14T11:01:17;0.00;;;0.00;;
18732;SDS011;9495;51.210;2.934;2023-03-14T11:03:59;0.17;;;0.17;;
18732;SDS011;9495;51.210;2.934;2023-03-14T11:06:34;0.33;;;0.33;;
18732;SDS011;9495;51.210;2.934;2023-03-14T11:09:07;0.17;;;0.17;;
18732;SDS011;9495;51.210;2.934;2023-03-14T11:11:43;0.10;;;0.10;;
18732;SDS011;9495;51.210;2.934;2023-03-14T11:14:19;0.00;;;0.00;;
18732;SDS011;9495;51.210;2.934;2023-03-14T11:16:56;0.23;;;0.20;;
18732;SDS011;9495;51.210;2.934;2023-03-14T11:19:32;0.00;;;0.00;;
18732;SDS011;9495;51.210;2.934;2023-03-14T11:22:14;1.50;;;0.73;;
18732;SDS011;9495;51.210;2.934;2023-03-14T11:25:02;0.00;;;0.00;;
18732;SDS011;9495;51.210;2.934;2023-03-14T11:27:41;0.00;;;0.00;;
18732;SDS011;9495;51.210;2.934;2023-03-14T11:30:17;0.10;;;0.10;;
18732;SDS011;9495;51.210;2.934;2023-03-14T11:32:50;0.10;;;0.10;;
18732;SDS011;9495;51.210;2.934;2023-03-14T11:35:26;0.10;;;0.10;;
18732;SDS011;9495;51.210;2.934;2023-03-14T11:38:00;0.00;;;0.00;;
18732;SDS011;9495;51.210;2.934;2023-03-14T11:40:47;0.10;;;0.10;;
18732;SDS011;9495;51.210;2.934;2023-03-14T11:43:18;0.10;;;0.10;;
18732;SDS011;9495;51.210;2.934;2023-03-14T11:45:52;0.00;;;0.00;;
18732;SDS011;9495;51.210;2.934;2023-03-14T11:48:28;0.30;;;0.20;;
18732;SDS011;9495;51.210;2.934;2023-03-14T11:51:04;0.20;;;0.20;;
18732;SDS011;9495;51.210;2.934;2023-03-14T11:53:40;0.53;;;0.47;;
18732;SDS011;9495;51.210;2.934;2023-03-14T11:56:17;0.00;;;0.00;;
18732;SDS011;9495;51.210;2.934;2023-03-14T11:58:54;0.30;;;0.30;;
18732;SDS011;9495;51.210;2.934;2023-03-14T12:01:27;0.30;;;0.30;;
18732;SDS011;9495;51.210;2.934;2023-03-14T12:04:04;0.17;;;0.17;;
18732;SDS011;9495;51.210;2.934;2023-03-14T12:06:42;0.33;;;0.33;;
18732;SDS011;9495;51.210;2.934;2023-03-14T12:09:15;0.87;;;0.60;;
18732;SDS011;9495;51.210;2.934;2023-03-14T12:11:46;2.40;;;1.33;;
18732;SDS011;9495;51.210;2.934;2023-03-14T12:14:20;0.00;;;0.00;;
18732;SDS011;9495;51.210;2.934;2023-03-14T12:16:53;0.20;;;0.20;;
18732;SDS011;9495;51.210;2.934;2023-03-14T12:19:32;0.10;;;0.10;;
18732;SDS011;9495;51.210;2.934;2023-03-14T12:22:07;0.10;;;0.10;;
18732;SDS011;9495;51.210;2.934;2023-03-14T12:24:51;0.10;;;0.10;;
18732;SDS011;9495;51.210;2.934;2023-03-14T12:30:18;0.10;;;0.10;;
18732;SDS011;9495;51.210;2.934;2023-03-14T12:33:14;0.00;;;0.00;;
18732;SDS011;9495;51.210;2.934;2023-03-14T12:36:10;0.87;;;0.50;;
18732;SDS011;9495;51.210;2.934;2023-03-14T12:39:02;0.10;;;0.10;;
18732;SDS011;9495;51.210;2.934;2023-03-14T12:41:41;0.10;;;0.10;;
18732;SDS011;9495;51.210;2.934;2023-03-14T12:50:19;0.73;;;0.73;;
18732;SDS011;9495;51.210;2.934;2023-03-14T12:53:00;0.10;;;0.10;;
18732;SDS011;9495;51.210;2.934;2023-03-14T12:55:52;0.20;;;0.20;;
18732;SDS011;9495;51.210;2.934;2023-03-14T12:58:27;0.20;;;0.20;;
18732;SDS011;9495;51.210;2.934;2023-03-14T13:00:59;0.10;;;0.10;;
18732;SDS011;9495;51.210;2.934;2023-03-14T13:03:36;0.10;;;0.10;;
18732;SDS011;9495;51.210;2.934;2023-03-14T13:06:09;11.37;;;0.70;;
18732;SDS011;9495;51.210;2.934;2023-03-14T13:08:41;0.10;;;0.10;;
18732;SDS011;9495;51.210;2.934;2023-03-14T13:11:10;0.17;;;0.17;;
18732;SDS011;9495;51.210;2.934;2023-03-14T13:13:44;0.10;;;0.10;;
18732;SDS011;9495;51.210;2.934;2023-03-14T13:16:15;0.00;;;0.00;;
18732;SDS011;9495;51.210;2.934;2023-03-14T13:18:45;0.20;;;0.20;;
18732;SDS011;9495;51.210;2.934;2023-03-14T13:21:15;0.00;;;0.00;;
18732;SDS011;9495;51.210;2.934;2023-03-14T13:23:57;0.00;;;0.00;;
18732;SDS011;9495;51.210;2.934;2023-03-14T13:26:32;0.10;;;0.10;;
18732;SDS011;9495;51.210;2.934;2023-03-14T13:29:15;0.00;;;0.00;;
18732;SDS011;9495;51.210;2.934;2023-03-14T13:31:48;0.10;;;0.10;;
18732;SDS011;9495;51.210;2.934;2023-03-14T13:34:18;0.10;;;0.10;;
18732;SDS011;9495;51.210;2.934;2023-03-14T13:36:46;0.00;;;0.00;;
18732;SDS011;9495;51.210;2.934;2023-03-14T13:39:20;0.10;;;0.10;;
18732;SDS011;9495;51.210;2.934;2023-03-14T13:41:51;0.07;;;0.07;;
18732;SDS011;9495;51.210;2.934;2023-03-14T13:44:22;0.73;;;0.73;;
18732;SDS011;9495;51.210;2.934;2023-03-14T13:46:56;0.07;;;0.07;;
18732;SDS011;9495;51.210;2.934;2023-03-14T13:49:25;0.00;;;0.00;;
18732;SDS011;9495;51.210;2.934;2023-03-14T13:51:55;0.00;;;0.00;;
18732;SDS011;9495;51.210;2.934;2023-03-14T13:54:25;0.23;;;0.23;;
18732;SDS011;9495;51.210;2.934;2023-03-14T13:56:59;17.57;;;2.67;;
18732;SDS011;9495;51.210;2.934;2023-03-14T13:59:28;13.67;;;2.47;;
18732;SDS011;9495;51.210;2.934;2023-03-14T14:01:58;15.23;;;2.30;;
18732;SDS011;9495;51.210;2.934;2023-03-14T14:04:32;16.77;;;2.37;;
18732;SDS011;9495;51.210;2.934;2023-03-14T14:07:06;16.07;;;2.37;;
18732;SDS011;9495;51.210;2.934;2023-03-14T14:09:39;13.73;;;2.43;;
18732;SDS011;9495;51.210;2.934;2023-03-14T14:12:11;16.53;;;2.80;;
18732;SDS011;9495;51.210;2.934;2023-03-14T14:14:43;20.50;;;2.70;;
18732;SDS011;9495;51.210;2.934;2023-03-14T14:17:15;16.17;;;3.20;;
18732;SDS011;9495;51.210;2.934;2023-03-14T14:19:48;14.43;;;2.50;;
18732;SDS011;9495;51.210;2.934;2023-03-14T14:22:17;18.63;;;3.40;;
18732;SDS011;9495;51.210;2.934;2023-03-14T14:24:48;15.47;;;2.40;;
18732;SDS011;9495;51.210;2.934;2023-03-14T14:27:19;17.00;;;3.00;;
18732;SDS011;9495;51.210;2.934;2023-03-14T14:29:56;15.93;;;3.00;;
18732;SDS011;9495;51.210;2.934;2023-03-14T14:32:33;17.80;;;3.00;;
18732;SDS011;9495;51.210;2.934;2023-03-14T14:35:03;12.40;;;2.87;;
18732;SDS011;9495;51.210;2.934;2023-03-14T14:37:33;19.30;;;2.90;;
18732;SDS011;9495;51.210;2.934;2023-03-14T14:40:08;16.33;;;2.20;;
18732;SDS011;9495;51.210;2.934;2023-03-14T14:42:43;19.70;;;2.43;;
18732;SDS011;9495;51.210;2.934;2023-03-14T14:45:13;7.97;;;2.03;;
18732;SDS011;9495;51.210;2.934;2023-03-14T14:47:50;12.90;;;2.07;;
18732;SDS011;9495;51.210;2.934;2023-03-14T14:50:25;18.90;;;2.77;;
18732;SDS011;9495;51.210;2.934;2023-03-14T14:52:56;17.57;;;2.80;;
18732;SDS011;9495;51.210;2.934;2023-03-14T14:55:31;15.00;;;2.40;;
18732;SDS011;9495;51.210;2.934;2023-03-14T14:58:11;21.73;;;2.60;;
18732;SDS011;9495;51.210;2.934;2023-03-14T15:00:51;13.47;;;2.23;;
18732;SDS011;9495;51.210;2.934;2023-03-14T15:03:22;11.00;;;2.20;;
18732;SDS011;9495;51.210;2.934;2023-03-14T15:05:53;11.40;;;2.00;;
18732;SDS011;9495;51.210;2.934;2023-03-14T15:08:23;14.63;;;2.67;;
18732;SDS011;9495;51.210;2.934;2023-03-14T15:10:54;17.03;;;2.87;;
18732;SDS011;9495;51.210;2.934;2023-03-14T15:13:23;16.03;;;2.90;;
18732;SDS011;9495;51.210;2.934;2023-03-14T15:15:51;14.33;;;3.50;;
18732;SDS011;9495;51.210;2.934;2023-03-14T15:18:22;17.33;;;2.93;;
18732;SDS011;9495;51.210;2.934;2023-03-14T15:20:55;14.67;;;3.07;;
18732;SDS011;9495;51.210;2.934;2023-03-14T15:23:24;11.53;;;2.53;;
18732;SDS011;9495;51.210;2.934;2023-03-14T15:25:54;15.10;;;2.60;;
18732;SDS011;9495;51.210;2.934;2023-03-14T15:28:24;16.00;;;2.77;;
18732;SDS011;9495;51.210;2.934;2023-03-14T15:30:54;14.30;;;2.50;;
18732;SDS011;9495;51.210;2.934;2023-03-14T15:33:23;13.47;;;2.77;;
18732;SDS011;9495;51.210;2.934;2023-03-14T15:35:52;18.10;;;3.07;;
18732;SDS011;9495;51.210;2.934;2023-03-14T15:38:21;16.73;;;3.33;;
18732;SDS011;9495;51.210;2.934;2023-03-14T15:40:50;19.90;;;3.47;;
18732;SDS011;9495;51.210;2.934;2023-03-14T15:43:20;15.07;;;3.43;;
18732;SDS011;9495;51.210;2.934;2023-03-14T15:45:48;19.97;;;3.40;;
18732;SDS011;9495;51.210;2.934;2023-03-14T15:48:18;11.70;;;2.50;;
18732;SDS011;9495;51.210;2.934;2023-03-14T15:50:47;13.77;;;3.10;;